Time;durP1;ratioP1;P1;durP2;ratioP2;P2;SDS_P1;SDS_P2;PMS_P1;PMS_P2;Temp;Humidity;BMP_temperature;BMP_pressure;BME280_temperature;BME280_humidity;BME280_pressure;Samples;Min_cycle;Max_cycle;Signal;HPM_P1;HPM_P2
2021/12/17 00:08:04;;;;;;;71.80;17.20;;;;;;;8.21;100.00;104076.59;10542806;28;20036;-74
2021/12/17 00:13:05;;;;;;;60.28;20.25;;;;;;;8.24;100.00;104070.13;10545637;28;20036;-74
2021/12/17 00:18:51;;;;;;;53.10;20.25;;;;;;;8.19;100.00;104080.34;10545548;28;20079;-75
2021/12/17 00:50:14;;;;;;;18.83;12.95;;;;;;;8.15;100.00;104077.88;10542687;28;20040;-74
2021/12/17 00:55:15;;;;;;;25.53;17.43;;;;;;;8.15;100.00;104080.56;10542687;28;20034;-74
2021/12/17 01:00:18;;;;;;;22.80;14.45;;;;;;;8.15;100.00;104077.88;10541416;28;20280;-74
2021/12/17 01:05:26;;;;;;;32.90;18.63;;;;;;;8.23;100.00;104076.47;10543164;28;20039;-74
2021/12/17 01:10:34;;;;;;;40.65;21.05;;;;;;;8.25;100.00;104075.41;10542215;28;20127;-74
2021/12/17 01:15:35;;;;;;;24.33;18.05;;;;;;;8.24;100.00;104070.13;10542998;28;20054;-74
2021/12/17 01:36:02;;;;;;;41.40;20.65;;;;;;;8.19;100.00;104077.66;10526606;28;20067;-75
2021/12/17 01:46:06;;;;;;;48.25;22.30;;;;;;;8.18;100.00;104081.34;10540220;28;20039;-74
2021/12/17 02:01:26;;;;;;;40.83;23.20;;;;;;;8.21;100.00;104079.28;10523931;28;20032;-74
2021/12/17 02:06:29;;;;;;;50.42;24.45;;;;;;;8.27;100.00;104070.78;10540378;28;20379;-74
2021/12/17 02:12:14;;;;;;;43.15;26.95;;;;;;;8.31;100.00;104077.69;10539631;28;20032;-74
2021/12/17 02:33:21;;;;;;;39.30;23.98;;;;;;;8.34;100.00;104055.03;10519854;28;20040;-74
2021/12/17 02:38:21;;;;;;;50.78;26.15;;;;;;;8.36;100.00;104053.97;10549134;28;20032;-74
2021/12/17 02:48:23;;;;;;;36.60;24.02;;;;;;;8.38;100.00;104057.44;10547737;28;20067;-75
2021/12/17 02:53:24;;;;;;;45.47;24.60;;;;;;;8.38;100.00;104060.13;10546658;28;20536;-74
2021/12/17 02:58:26;;;;;;;32.15;22.90;;;;;;;8.38;100.00;104061.97;10530309;28;20032;-74
2021/12/17 03:03:27;;;;;;;46.88;29.75;;;;;;;8.33;100.00;104059.56;10530625;28;20117;-74
2021/12/17 03:08:29;;;;;;;50.92;27.08;;;;;;;8.34;100.00;104053.19;10513850;28;20032;-74
2021/12/17 03:13:33;;;;;;;41.05;27.40;;;;;;;8.34;100.00;104050.47;10545789;28;20399;-74
2021/12/17 03:18:57;;;;;;;44.00;26.17;;;;;;;8.35;100.00;104043.25;10545107;28;20059;-74
2021/12/17 03:23:56;;;;;;;42.15;26.90;;;;;;;8.30;100.00;104053.50;10545499;28;20056;-74
2021/12/17 03:29:02;;;;;;;39.40;26.52;;;;;;;8.24;100.00;104060.19;10546004;28;20456;-75
2021/12/17 03:34:16;;;;;;;27.93;23.47;;;;;;;8.23;100.00;104052.19;10528907;28;20467;-74
2021/12/17 03:39:17;;;;;;;28.55;22.52;;;;;;;8.23;100.00;104068.38;10533802;28;20020;-74
2021/12/17 03:44:18;;;;;;;42.00;23.70;;;;;;;8.22;100.00;104061.25;10546219;28;20056;-74
2021/12/17 03:49:23;;;;;;;37.22;27.45;;;;;;;8.19;100.00;104064.16;10544689;28;20372;-74
2021/12/17 03:54:23;;;;;;;58.38;28.77;;;;;;;8.18;100.00;104065.16;10545714;28;20067;-74
2021/12/17 03:59:24;;;;;;;30.13;22.15;;;;;;;8.10;100.00;104060.25;10545537;28;20121;-74
2021/12/17 04:04:24;;;;;;;27.45;20.58;;;;;;;8.08;100.00;104064.91;10546707;28;20075;-74
2021/12/17 04:09:29;;;;;;;25.60;18.75;;;;;;;8.06;100.00;104073.09;10544573;28;20422;-74
2021/12/17 04:14:40;;;;;;;30.52;18.23;;;;;;;8.10;100.00;104073.75;10543543;28;20120;-74
2021/12/17 04:19:40;;;;;;;31.45;18.65;;;;;;;8.11;100.00;104080.91;10562355;28;20070;-74
2021/12/17 04:24:40;;;;;;;25.38;16.50;;;;;;;8.07;100.00;104082.03;10526577;28;20161;-74
2021/12/17 04:29:41;;;;;;;24.48;15.02;;;;;;;8.01;100.00;104087.84;10526379;28;20128;-73
2021/12/17 04:34:42;;;;;;;23.42;14.25;;;;;;;7.95;100.00;104078.34;10545605;28;20028;-74
2021/12/17 04:39:42;;;;;;;19.70;13.98;;;;;;;7.91;100.00;104079.50;10526575;28;20059;-74
2021/12/17 04:44:50;;;;;;;26.95;15.88;;;;;;;7.94;100.00;104087.41;10545402;28;20036;-74
2021/12/17 05:00:29;;;;;;;25.02;16.95;;;;;;;7.87;100.00;104077.97;10545964;28;20044;-75
2021/12/17 05:05:30;;;;;;;28.23;17.02;;;;;;;7.88;100.00;104074.31;10544097;28;20388;-74
2021/12/17 05:21:08;;;;;;;38.90;22.60;;;;;;;7.79;100.00;104074.94;10541682;28;20044;-74
2021/12/17 05:26:13;;;;;;;24.88;18.70;;;;;;;7.73;100.00;104073.50;10542718;28;20028;-75
2021/12/17 05:31:16;;;;;;;30.85;17.63;;;;;;;7.73;100.00;104064.56;10523740;28;20060;-75
2021/12/17 05:36:16;;;;;;;29.25;18.88;;;;;;;7.76;100.00;104069.75;10541802;28;20111;-74
2021/12/17 05:41:16;;;;;;;46.78;22.52;;;;;;;7.77;100.00;104057.97;10542896;28;20194;-75
2021/12/17 05:46:23;;;;;;;31.63;21.25;;;;;;;7.81;100.00;104063.06;10496300;28;20399;-75
2021/12/17 05:51:24;;;;;;;;;;;;;;;7.86;100.00;104073.56;10542337;28;20028;-75
2021/12/17 05:56:24;;;;;;;44.95;23.25;;;;;;;7.83;100.00;104076.47;10541731;28;19916;-75
2021/12/17 06:01:24;;;;;;;31.63;21.85;;;;;;;7.78;100.00;104087.53;10541757;28;20497;-74
2021/12/17 06:06:29;;;;;;;33.15;21.60;;;;;;;7.78;100.00;104083.97;10540303;28;20095;-73
2021/12/17 06:11:29;;;;;;;30.10;20.40;;;;;;;7.81;100.00;104078.38;10538785;28;20084;-73
2021/12/17 06:16:33;;;;;;;35.47;18.83;;;;;;;7.83;100.00;104092.66;10539958;28;20397;-73
2021/12/17 06:21:33;;;;;;;24.10;15.20;;;;;;;7.79;100.00;104096.53;10539283;28;20040;-74
2021/12/17 06:26:33;;;;;;;20.13;12.30;;;;;;;7.72;100.00;104104.13;10539150;28;20494;-73
2021/12/17 06:31:34;;;;;;;12.57;10.27;;;;;;;7.62;100.00;104111.09;10539164;28;20043;-73
2021/12/17 06:36:34;;;;;;;18.55;13.27;;;;;;;7.61;100.00;104103.97;10521676;28;20044;-73
2021/12/17 06:41:35;;;;;;;18.40;13.07;;;;;;;7.57;100.00;104115.94;10538679;28;20032;-73
2021/12/17 06:58:37;;;;;;;24.85;14.45;;;;;;;7.64;100.00;104123.53;10539651;28;20032;-73
2021/12/17 07:09:04;;;;;;;20.98;11.75;;;;;;;7.84;100.00;104105.16;10537686;28;20487;-73
2021/12/17 07:34:20;;;;;;;14.63;10.77;;;;;;;7.84;100.00;104137.53;10544671;28;20032;-74
2021/12/17 07:39:20;;;;;;;18.10;11.95;;;;;;;7.83;100.00;104134.00;10545293;28;20032;-73
2021/12/17 07:44:21;;;;;;;18.67;10.82;;;;;;;7.83;100.00;104142.06;10511731;28;20468;-74
2021/12/17 07:49:21;;;;;;;25.75;13.38;;;;;;;7.89;100.00;104144.38;10545936;28;20067;-74
2021/12/17 07:54:22;;;;;;;17.98;11.02;;;;;;;7.95;100.00;104147.66;10544619;28;20090;-74
2021/12/17 07:59:22;;;;;;;17.80;11.30;;;;;;;7.98;100.00;104150.16;10543275;28;20535;-74
2021/12/17 08:04:24;;;;;;;21.35;12.80;;;;;;;7.96;100.00;104152.06;10543852;28;20039;-73
2021/12/17 08:09:25;;;;;;;22.25;12.15;;;;;;;8.00;100.00;104156.28;10545778;28;20068;-74
2021/12/17 08:14:27;;;;;;;21.73;11.23;;;;;;;8.04;100.00;104161.41;10526774;28;20039;-74
2021/12/17 08:30:09;;;;;;;20.08;11.30;;;;;;;8.14;100.00;104154.44;10541867;28;20105;-74
2021/12/17 08:35:10;;;;;;;13.90;10.48;;;;;;;8.19;100.00;104153.25;10529546;28;20024;-74
2021/12/17 08:40:10;;;;;;;16.75;10.38;;;;;;;8.21;100.00;104157.59;10559639;28;20031;-74
2021/12/17 08:45:11;;;;;;;21.98;12.57;;;;;;;8.29;100.00;104147.13;10543340;28;20048;-73
2021/12/17 08:50:12;;;;;;;19.92;10.73;;;;;;;8.42;100.00;104141.78;10543117;28;20456;-72
2021/12/17 08:55:12;;;;;;;23.17;10.45;;;;;;;8.50;100.00;104146.69;10544091;28;20032;-74
2021/12/17 09:00:13;;;;;;;18.20;11.32;;;;;;;8.53;100.00;104135.69;10541586;28;20032;-73
2021/12/17 09:05:13;;;;;;;15.45;9.63;;;;;;;8.65;100.00;104147.47;10507911;28;20593;-73
2021/12/17 09:10:20;;;;;;;15.20;9.25;;;;;;;8.73;100.00;104154.06;10540393;28;20032;-73
2021/12/17 09:15:20;;;;;;;21.20;12.00;;;;;;;8.67;100.00;104159.03;10543257;28;20048;-73
2021/12/17 09:20:21;;;;;;;20.00;11.38;;;;;;;8.75;100.00;104151.28;10542060;28;20757;-73
2021/12/17 09:25:21;;;;;;;14.55;10.13;;;;;;;8.76;100.00;104158.41;10541658;28;20139;-73
2021/12/17 09:30:21;;;;;;;16.10;10.23;;;;;;;8.73;100.00;104156.78;10559343;28;20515;-73
2021/12/17 09:35:24;;;;;;;15.52;10.30;;;;;;;8.78;100.00;104168.16;10540893;28;20039;-73
2021/12/17 09:40:24;;;;;;;15.93;10.63;;;;;;;8.90;100.00;104165.56;10525240;28;20036;-73
2021/12/17 09:45:25;;;;;;;25.00;12.18;;;;;;;8.98;100.00;104174.00;10542256;28;20035;-73
2021/12/17 09:50:25;;;;;;;23.83;11.38;;;;;;;9.04;100.00;104179.00;10541036;28;20131;-74
2021/12/17 09:55:26;;;;;;;16.45;10.52;;;;;;;9.03;100.00;104178.13;10541526;28;20130;-74
2021/12/17 10:00:26;;;;;;;18.70;9.82;;;;;;;8.91;100.00;104183.53;10542260;28;20039;-75
2021/12/17 10:05:30;;;;;;;17.85;8.77;;;;;;;8.87;100.00;104185.59;10543313;28;20394;-74
2021/12/17 10:10:37;;;;;;;12.40;8.27;;;;;;;9.00;100.00;104188.31;10542109;28;20056;-73
2021/12/17 10:15:39;;;;;;;15.50;8.15;;;;;;;9.10;100.00;104185.81;10540958;28;20082;-74
2021/12/17 10:20:41;;;;;;;14.45;7.97;;;;;;;9.01;100.00;104199.00;10541214;28;20043;-72
2021/12/17 10:25:43;;;;;;;8.80;7.03;;;;;;;8.99;100.00;104205.47;10540286;28;20028;-73
2021/12/17 10:30:46;;;;;;;14.27;6.00;;;;;;;8.88;100.00;104197.25;10540050;28;20043;-74
2021/12/17 10:35:48;;;;;;;9.30;4.70;;;;;;;8.98;100.00;104201.03;10539583;28;20032;-73
2021/12/17 10:46:10;;;;;;;5.93;4.25;;;;;;;8.84;100.00;104202.88;10541277;28;20040;-74
2021/12/17 10:51:30;;;;;;;5.55;4.80;;;;;;;8.77;100.00;104211.47;10542752;28;20110;-73
2021/12/17 10:56:35;;;;;;;10.32;4.88;;;;;;;8.66;100.00;104203.25;10549512;28;20036;-73
2021/12/17 11:01:35;;;;;;;6.45;4.15;;;;;;;8.49;100.00;104205.25;10547390;28;20048;-73
2021/12/17 11:06:47;;;;;;;8.63;4.43;;;;;;;8.50;100.00;104206.97;10547667;28;20094;-73
2021/12/17 11:11:50;;;;;;;4.07;3.63;;;;;;;8.59;100.00;104205.50;10546694;28;20024;-73
2021/12/17 11:16:50;;;;;;;6.75;4.45;;;;;;;8.73;100.00;104207.25;10546375;28;20076;-73
2021/12/17 11:21:51;;;;;;;10.80;5.15;;;;;;;8.77;100.00;104198.81;10547567;28;20055;-73
2021/12/17 11:26:51;;;;;;;8.65;5.18;;;;;;;8.72;100.00;104189.31;10546131;28;20036;-73
2021/12/17 11:31:52;;;;;;;6.47;4.65;;;;;;;8.63;100.00;104185.41;10546681;28;20028;-73
2021/12/17 11:36:52;;;;;;;6.78;4.82;;;;;;;8.56;100.00;104186.78;10546163;28;20047;-73
2021/12/17 11:42:18;;;;;;;10.95;5.30;;;;;;;8.58;100.00;104185.72;10545520;28;20044;-73
2021/12/17 11:47:19;;;;;;;5.70;4.60;;;;;;;8.53;100.00;104182.47;10547156;28;20035;-73
2021/12/17 11:52:34;;;;;;;8.82;4.85;;;;;;;8.41;100.00;104175.19;10529038;28;20024;-73
2021/12/17 11:57:42;;;;;;;7.13;6.18;;;;;;;8.48;100.00;104181.91;10547822;28;20063;-74
2021/12/17 12:02:49;;;;;;;8.63;4.90;;;;;;;8.52;100.00;104179.84;10545088;28;20036;-73
2021/12/17 12:07:49;;;;;;;9.57;5.20;;;;;;;8.47;100.00;104166.66;10546074;28;20415;-72
2021/12/17 12:12:50;;;;;;;5.25;3.97;;;;;;;8.46;100.00;104178.44;10545486;28;20028;-73
2021/12/17 12:18:10;;;;;;;5.85;4.25;;;;;;;8.50;100.00;104174.56;10546007;28;20421;-73
2021/12/17 12:23:27;;;;;;;7.50;2.88;;;;;;;8.41;100.00;104177.88;10543444;28;20032;-74
2021/12/17 12:28:56;;;;;;;4.90;3.88;;;;;;;8.35;100.00;104184.50;10544503;28;20035;-73
2021/12/17 12:34:10;;;;;;;6.38;3.33;;;;;;;8.39;100.00;104177.09;10544396;28;20034;-74
2021/12/17 12:39:19;;;;;;;4.85;3.03;;;;;;;8.44;100.00;104191.19;10544891;28;20035;-73
2021/12/17 12:44:20;;;;;;;2.53;2.33;;;;;;;8.43;100.00;104188.59;10544320;28;20039;-73
2021/12/17 12:49:50;;;;;;;2.50;2.35;;;;;;;8.42;100.00;104190.41;10544010;28;20482;-73
2021/12/17 12:54:52;;;;;;;4.93;3.40;;;;;;;8.31;100.00;104187.53;10535232;28;20044;-73
2021/12/17 12:59:52;;;;;;;3.22;2.83;;;;;;;8.18;100.00;104183.94;10542373;28;20047;-73
2021/12/17 13:04:57;;;;;;;4.20;3.50;;;;;;;8.07;100.00;104176.50;10541982;28;20348;-72
2021/12/17 13:10:08;;;;;;;5.43;3.25;;;;;;;8.09;100.00;104167.34;10524666;28;20039;-73
2021/12/17 13:15:19;;;;;;;5.30;3.17;;;;;;;8.06;100.00;104154.06;10540753;28;20071;-72
2021/12/17 13:20:43;;;;;;;5.68;3.20;;;;;;;8.13;100.00;104157.22;10511643;28;20031;-72
2021/12/17 13:25:43;;;;;;;3.65;3.28;;;;;;;8.08;100.00;104157.53;10541087;28;20089;-73
2021/12/17 13:30:43;;;;;;;5.15;3.72;;;;;;;8.01;100.00;104147.22;10523256;28;20124;-73
2021/12/17 13:35:46;;;;;;;4.93;4.40;;;;;;;7.91;100.00;104155.06;10539885;28;20048;-73
2021/12/17 13:40:52;;;;;;;4.22;3.38;;;;;;;7.84;100.00;104146.50;10540292;28;20078;-72
2021/12/17 13:45:53;;;;;;;8.13;4.10;;;;;;;7.92;100.00;104141.47;10525230;28;20055;-73
2021/12/17 13:50:54;;;;;;;4.10;3.60;;;;;;;7.83;100.00;104152.00;10540951;28;20097;-72
2021/12/17 13:55:54;;;;;;;4.32;3.08;;;;;;;7.85;100.00;104156.34;10540928;28;20028;-73
2021/12/17 14:00:57;;;;;;;6.55;3.33;;;;;;;7.83;100.00;104158.28;10540843;28;20090;-72
2021/12/17 14:05:58;;;;;;;4.32;3.63;;;;;;;7.92;100.00;104162.22;10540580;28;20073;-72
2021/12/17 14:10:58;;;;;;;3.83;3.00;;;;;;;8.05;100.00;104146.94;10540179;28;20529;-72
2021/12/17 14:16:00;;;;;;;5.15;3.15;;;;;;;8.06;100.00;104156.75;10540718;28;20144;-72
2021/12/17 14:21:02;;;;;;;3.70;3.40;;;;;;;8.09;100.00;104148.47;10538874;28;20093;-73
2021/12/17 14:26:07;;;;;;;3.92;3.33;;;;;;;8.10;100.00;104150.22;10541831;28;20040;-72
2021/12/17 14:31:14;;;;;;;3.67;3.38;;;;;;;8.22;100.00;104148.50;10547778;28;20391;-73
2021/12/17 14:36:41;;;;;;;4.47;3.92;;;;;;;8.22;100.00;104156.59;10549462;28;20474;-72
2021/12/17 14:41:55;;;;;;;5.50;3.55;;;;;;;8.10;100.00;104147.50;10548401;28;20044;-72
2021/12/17 14:47:10;;;;;;;4.57;4.15;;;;;;;8.07;100.00;104152.22;10547977;28;20043;-72
2021/12/17 15:07:58;;;;;;;6.38;4.18;;;;;;;7.97;100.00;104165.44;10548088;28;20105;-72
2021/12/17 15:13:00;;;;;;;5.07;4.38;;;;;;;7.97;100.00;104162.75;10546971;28;20032;-72
2021/12/17 15:18:01;;;;;;;6.63;5.10;;;;;;;7.98;100.00;104153.72;10550552;28;20055;-72
2021/12/17 15:23:03;;;;;;;5.10;4.57;;;;;;;7.87;100.00;104156.22;10554599;28;20059;-73
2021/12/17 15:28:03;;;;;;;7.00;5.22;;;;;;;7.94;100.00;104157.56;10550091;28;20032;-73
2021/12/17 15:33:04;;;;;;;5.95;5.13;;;;;;;7.94;100.00;104154.84;10547364;28;20031;-72
2021/12/17 15:38:07;;;;;;;7.20;6.03;;;;;;;7.98;100.00;104151.00;10544833;28;20059;-73
2021/12/17 15:43:08;;;;;;;7.28;6.13;;;;;;;8.01;100.00;104145.41;10528863;28;20032;-72
2021/12/17 15:48:10;;;;;;;7.28;5.28;;;;;;;8.05;100.00;104146.94;10545500;28;20028;-72
2021/12/17 15:53:10;;;;;;;8.00;6.97;;;;;;;8.06;100.00;104154.06;10527942;28;20035;-73
2021/12/17 15:58:11;;;;;;;7.68;6.10;;;;;;;8.00;100.00;104154.47;10546501;28;20040;-73
2021/12/17 16:03:14;;;;;;;8.60;7.65;;;;;;;8.05;100.00;104151.47;10544057;28;20040;-73
2021/12/17 16:08:14;;;;;;;7.70;5.93;;;;;;;8.05;100.00;104148.78;10545015;28;20036;-72
2021/12/17 16:23:59;;;;;;;5.32;4.82;;;;;;;8.10;100.00;104139.41;10544867;28;20085;-73
2021/12/17 16:28:59;;;;;;;7.47;6.00;;;;;;;8.09;100.00;104148.47;10545273;28;20028;-73
2021/12/17 16:34:02;;;;;;;8.63;7.25;;;;;;;8.08;100.00;104145.88;10544858;28;20119;-73
2021/12/17 16:39:04;;;;;;;9.63;6.45;;;;;;;8.11;100.00;104146.53;10543812;28;20479;-73
2021/12/17 16:44:08;;;;;;;10.43;6.95;;;;;;;8.17;100.00;104147.97;10525840;28;20089;-73
2021/12/17 16:49:14;;;;;;;9.75;4.75;;;;;;;8.18;100.00;104151.53;10543827;28;20081;-73
2021/12/17 16:54:15;;;;;;;7.22;5.78;;;;;;;8.23;100.00;104143.97;10544243;28;20111;-73
2021/12/17 16:59:16;;;;;;;7.30;5.85;;;;;;;8.25;100.00;104139.34;10544103;28;20040;-73
2021/12/17 17:04:18;;;;;;;7.40;6.68;;;;;;;8.22;100.00;104156.59;10543650;28;20035;-72
2021/12/17 17:09:18;;;;;;;13.20;6.05;;;;;;;8.19;100.00;104154.13;10544600;28;20048;-73
2021/12/17 17:14:18;;;;;;;11.57;5.82;;;;;;;8.16;100.00;104163.28;10542900;28;20032;-73
2021/12/17 17:19:19;;;;;;;8.52;6.60;;;;;;;8.19;100.00;104158.66;10542167;28;20097;-73
2021/12/17 17:24:19;;;;;;;11.80;7.95;;;;;;;8.18;100.00;104159.63;10542389;28;20464;-73
2021/12/17 17:29:20;;;;;;;10.95;7.70;;;;;;;8.19;100.00;104153.25;10541106;28;20047;-73
2021/12/17 17:34:21;;;;;;;6.50;5.90;;;;;;;8.15;100.00;104160.69;10542126;28;20089;-72
2021/12/17 17:39:21;;;;;;;16.98;4.85;;;;;;;8.10;100.00;104169.09;10542569;28;20035;-73
2021/12/17 17:44:22;;;;;;;10.07;6.45;;;;;;;8.11;100.00;104172.66;10541232;28;20035;-73
2021/12/17 17:49:22;;;;;;;3.80;3.47;;;;;;;8.04;100.00;104176.72;10539856;28;20036;-73
2021/12/17 17:54:23;;;;;;;3.50;3.20;;;;;;;8.00;100.00;104178.75;10541246;28;20448;-72
2021/12/17 17:59:23;;;;;;;4.60;3.72;;;;;;;7.99;100.00;104181.56;10539270;28;20100;-73
2021/12/17 18:04:23;;;;;;;7.25;5.25;;;;;;;8.07;100.00;104174.72;10538626;28;20391;-72
2021/12/17 18:09:24;;;;;;;5.70;5.20;;;;;;;8.03;100.00;104181.25;10540220;28;20120;-73
2021/12/17 18:14:24;;;;;;;5.97;4.60;;;;;;;7.89;100.00;104189.38;10538177;28;20117;-72
2021/12/17 18:19:25;;;;;;;6.35;5.63;;;;;;;7.89;100.00;104178.59;10539527;28;20064;-72
2021/12/17 18:24:25;;;;;;;8.07;6.43;;;;;;;7.88;100.00;104184.94;10538842;28;20067;-73
2021/12/17 18:29:26;;;;;;;11.55;6.93;;;;;;;7.82;100.00;104177.28;10539933;28;20036;-72
2021/12/17 18:34:27;;;;;;;9.98;6.72;;;;;;;7.79;100.00;104178.31;10522896;28;20028;-72
2021/12/17 18:39:27;;;;;;;9.80;7.70;;;;;;;7.89;100.00;104171.38;10541914;28;20049;-73
2021/12/17 18:44:27;;;;;;;9.73;6.63;;;;;;;7.84;100.00;104164.53;10541330;28;20062;-72
2021/12/17 18:49:29;;;;;;;9.63;8.63;;;;;;;7.76;100.00;104169.56;10543016;28;20031;-73
2021/12/17 18:54:30;;;;;;;9.27;7.18;;;;;;;7.81;100.00;104184.47;10542438;28;20428;-73
2021/12/17 18:59:30;;;;;;;9.95;7.68;;;;;;;7.78;100.00;104178.41;10539677;28;20032;-72
2021/12/17 19:04:30;;;;;;;9.93;8.40;;;;;;;7.76;100.00;104177.66;10523216;28;20047;-72
2021/12/17 19:09:31;;;;;;;10.57;8.43;;;;;;;7.81;100.00;104178.22;10538323;28;20043;-72
2021/12/17 19:14:33;;;;;;;7.55;6.88;;;;;;;7.85;100.00;104177.06;10544597;28;20059;-73
2021/12/17 19:19:48;;;;;;;8.63;7.22;;;;;;;7.91;100.00;104179.34;10546928;28;20391;-72
2021/12/17 19:24:48;;;;;;;7.40;6.63;;;;;;;7.90;100.00;104183.00;10546931;28;20460;-72
2021/12/17 19:29:49;;;;;;;8.50;7.35;;;;;;;7.88;100.00;104187.63;10544943;28;20032;-73
2021/12/17 19:34:49;;;;;;;8.10;6.45;;;;;;;7.99;100.00;104185.13;10545217;28;20028;-72
2021/12/17 19:39:51;;;;;;;9.00;6.30;;;;;;;8.05;100.00;104190.13;10528104;28;20035;-72
2021/12/17 19:44:53;;;;;;;12.07;7.63;;;;;;;7.95;100.00;104175.50;10546128;28;20028;-72
2021/12/17 19:49:54;;;;;;;11.27;8.27;;;;;;;8.04;100.00;104172.22;10548123;28;20502;-74
2021/12/17 19:54:54;;;;;;;13.00;9.60;;;;;;;8.07;100.00;104176.50;10544205;28;20028;-72
2021/12/17 20:00:01;;;;;;;15.48;8.52;;;;;;;8.05;100.00;104184.72;10528061;28;20080;-73
2021/12/17 20:05:02;;;;;;;9.93;6.60;;;;;;;8.04;100.00;104182.09;10547108;28;20103;-72
2021/12/17 20:10:03;;;;;;;7.63;5.30;;;;;;;8.05;100.00;104186.56;10526849;28;20028;-73
2021/12/17 20:15:05;;;;;;;4.80;3.88;;;;;;;7.98;100.00;104199.59;10544038;28;20032;-73
2021/12/17 20:20:06;;;;;;;2.17;2.00;;;;;;;7.91;100.00;104192.84;10546275;28;20059;-73
2021/12/17 20:25:06;;;;;;;10.10;2.53;;;;;;;7.94;100.00;104198.03;10544463;28;20036;-73
2021/12/17 20:30:10;;;;;;;1.10;1.10;;;;;;;7.90;100.00;104191.13;10545343;28;20034;-73
2021/12/17 20:35:11;;;;;;;1.33;1.25;;;;;;;7.86;100.00;104181.50;10544668;28;20410;-73
2021/12/17 20:40:17;;;;;;;2.40;2.20;;;;;;;7.86;100.00;104184.19;10543242;28;20040;-73
2021/12/17 20:45:21;;;;;;;1.70;1.60;;;;;;;7.79;100.00;104182.88;10542728;28;20036;-73
2021/12/17 20:50:21;;;;;;;2.80;2.53;;;;;;;7.73;100.00;104180.56;10542394;28;20413;-73
2021/12/17 20:55:22;;;;;;;2.90;2.47;;;;;;;7.71;100.00;104183.34;10544375;28;20119;-73
2021/12/17 21:00:24;;;;;;;3.50;3.20;;;;;;;7.71;100.00;104179.78;10542596;28;20039;-73
2021/12/17 21:05:26;;;;;;;4.68;3.33;;;;;;;7.65;100.00;104186.41;10525062;28;20028;-73
2021/12/17 21:10:28;;;;;;;4.03;3.40;;;;;;;7.67;100.00;104176.41;10524552;28;20039;-73
2021/12/17 21:15:28;;;;;;;10.23;4.90;;;;;;;7.66;100.00;104185.47;10542277;28;20036;-73
2021/12/17 21:20:31;;;;;;;4.60;4.20;;;;;;;7.58;100.00;104195.88;10542990;28;20479;-73
2021/12/17 21:25:31;;;;;;;16.15;7.03;;;;;;;7.52;100.00;104189.03;10542019;28;20093;-74
2021/12/17 21:30:32;;;;;;;7.70;5.45;;;;;;;7.48;100.00;104186.63;10540072;28;20107;-73
2021/12/17 21:35:34;;;;;;;5.93;5.30;;;;;;;7.48;100.00;104187.50;10539387;28;20036;-73
2021/12/17 21:40:36;;;;;;;8.82;6.10;;;;;;;7.43;100.00;104184.22;10541393;28;20028;-73
2021/12/17 21:45:36;;;;;;;7.07;5.43;;;;;;;7.48;100.00;104182.09;10541772;28;20474;-74
2021/12/17 21:50:36;;;;;;;6.25;4.75;;;;;;;7.52;100.00;104183.63;10539409;28;20112;-73
2021/12/17 21:55:37;;;;;;;11.23;5.50;;;;;;;7.53;100.00;104171.00;10540457;28;20105;-73
2021/12/17 22:00:37;;;;;;;7.53;5.13;;;;;;;7.49;100.00;104169.47;10540924;28;20040;-73
2021/12/17 22:05:38;;;;;;;4.28;3.55;;;;;;;7.57;100.00;104161.78;10541849;28;20059;-72
2021/12/17 22:10:38;;;;;;;6.47;4.95;;;;;;;7.58;100.00;104158.97;10543374;28;20081;-74
2021/12/17 22:15:39;;;;;;;7.45;6.15;;;;;;;7.61;100.00;104157.91;10542417;28;20559;-74
2021/12/17 22:21:16;;;;;;;9.05;6.63;;;;;;;7.48;100.00;104141.66;10545319;28;20036;-73
2021/12/17 22:26:07;;;;;;;15.23;7.72;;;;;;;7.45;100.00;104148.09;10539182;28;20054;-73
2021/12/17 22:31:08;;;;;;;8.07;7.28;;;;;;;7.47;100.00;104161.50;10540198;28;20028;-73
2021/12/17 22:36:08;;;;;;;9.32;7.28;;;;;;;7.55;100.00;104150.22;10539455;28;20028;-73
2021/12/17 22:41:40;;;;;;;9.48;7.40;;;;;;;7.54;100.00;104149.34;10539389;28;20044;-73
2021/12/17 22:46:31;;;;;;;9.40;6.00;;;;;;;7.43;100.00;104159.94;10540544;28;20047;-73
2021/12/17 22:51:32;;;;;;;6.30;3.95;;;;;;;7.31;100.00;104158.03;10549344;28;20039;-73
2021/12/17 22:56:32;;;;;;;6.22;3.40;;;;;;;7.32;100.00;104154.38;10547998;28;20055;-74
2021/12/17 23:01:40;;;;;;;2.58;2.38;;;;;;;7.38;100.00;104154.84;10530256;28;20124;-73
2021/12/17 23:06:44;;;;;;;3.38;3.10;;;;;;;7.48;100.00;104155.13;10547074;28;20043;-73
2021/12/17 23:11:50;;;;;;;2.72;2.30;;;;;;;7.49;100.00;104162.25;10547120;28;20447;-73
2021/12/17 23:16:51;;;;;;;3.53;2.47;;;;;;;7.41;100.00;104151.97;10548047;28;20434;-72
2021/12/17 23:21:51;;;;;;;2.95;2.47;;;;;;;7.44;100.00;104157.16;10548118;28;20036;-73
2021/12/17 23:26:51;;;;;;;3.20;2.67;;;;;;;7.52;100.00;104170.16;10546248;28;20380;-73
2021/12/17 23:31:52;;;;;;;1.55;1.48;;;;;;;7.53;100.00;104163.81;10544743;28;20368;-73
2021/12/17 23:36:54;;;;;;;5.00;3.35;;;;;;;7.56;100.00;104166.31;10528254;28;20035;-73
2021/12/17 23:41:55;;;;;;;3.58;2.85;;;;;;;7.60;100.00;104158.91;10545599;28;20063;-73
2021/12/17 23:46:55;;;;;;;4.18;3.58;;;;;;;7.60;100.00;104150.81;10529072;28;20460;-73
2021/12/17 23:51:56;;;;;;;8.20;3.70;;;;;;;7.60;100.00;104161.59;10527530;28;20077;-74
2021/12/17 23:56:58;;;;;;;4.75;4.32;;;;;;;7.57;100.00;104154.56;10543947;28;20060;-73
